DLH37L EDLP-EDDS
Flight info
| Callsign | DLH37L |
|---|---|
| Flight time | 0h 42m |
| Altitude | 23000 |
| Route | GISDI1W GISDI Y13 ALEXU N850 KRH T128 BADSO BADSO2A |
| Aircraft | A20N/M-SDE2E3FGHIRWXY/LB1 |
Departure
| Time | 2026-05-06 16:09 |
|---|---|
| Airport | Paderborn Lippstadt Airport (EDLP) |
Arrival
| Time | 2026-05-06 16:51 |
|---|---|
| Airport | Stuttgart Airport (EDDS) |
| Time | Latitude | Longitude | Altitude | Speed | Heading |
|---|---|---|---|---|---|
| 2026-05-06 15:50 | 51.61086 | 8.61860 | 696 ft | 0 kts | 146° |
| 2026-05-06 16:01 | 51.61097 | 8.61849 | 692 ft | 2 kts | 146° |
| 2026-05-06 16:01 | 51.61109 | 8.61835 | 686 ft | 2 kts | 141° |
| 2026-05-06 16:01 | 51.61116 | 8.61825 | 687 ft | 2 kts | 138° |
| 2026-05-06 16:01 | 51.61126 | 8.61807 | 691 ft | 2 kts | 116° |
| 2026-05-06 16:02 | 51.61130 | 8.61790 | 689 ft | 2 kts | 80° |
| 2026-05-06 16:02 | 51.61123 | 8.61767 | 689 ft | 3 kts | 50° |
| 2026-05-06 16:02 | 51.61112 | 8.61746 | 690 ft | 0 kts | 53° |
| 2026-05-06 16:04 | 51.61112 | 8.61747 | 690 ft | 0 kts | 53° |
| 2026-05-06 16:04 | 51.61119 | 8.61764 | 688 ft | 5 kts | 57° |
| 2026-05-06 16:04 | 51.61156 | 8.61858 | 689 ft | 15 kts | 57° |
| 2026-05-06 16:05 | 51.61243 | 8.61985 | 689 ft | 18 kts | 354° |
| 2026-05-06 16:05 | 51.61372 | 8.62052 | 686 ft | 24 kts | 36° |
| 2026-05-06 16:05 | 51.61466 | 8.62257 | 682 ft | 17 kts | 57° |
| 2026-05-06 16:05 | 51.61562 | 8.62495 | 686 ft | 33 kts | 58° |
| 2026-05-06 16:06 | 51.61641 | 8.62687 | 680 ft | 20 kts | 56° |
| 2026-05-06 16:06 | 51.61725 | 8.62890 | 684 ft | 0 kts | 56° |
| 2026-05-06 16:06 | 51.61756 | 8.62965 | 678 ft | 18 kts | 56° |
| 2026-05-06 16:06 | 51.61847 | 8.63122 | 683 ft | 0 kts | 19° |
| 2026-05-06 16:07 | 51.61849 | 8.63124 | 683 ft | 0 kts | 17° |
| 2026-05-06 16:07 | 51.61864 | 8.63131 | 683 ft | 9 kts | 17° |
| 2026-05-06 16:07 | 51.61949 | 8.63057 | 680 ft | 17 kts | 301° |
| 2026-05-06 16:07 | 51.61929 | 8.62902 | 680 ft | 0 kts | 235° |
| 2026-05-06 16:08 | 51.61900 | 8.62833 | 685 ft | 36 kts | 236° |
| 2026-05-06 16:09 | 51.61595 | 8.62086 | 686 ft | 120 kts | 237° |
| 2026-05-06 16:09 | 51.61031 | 8.60692 | 935 ft | 163 kts | 237° |
| 2026-05-06 16:09 | 51.60407 | 8.59091 | 1771 ft | 169 kts | 239° |
| 2026-05-06 16:09 | 51.59795 | 8.57517 | 2734 ft | 166 kts | 238° |
| 2026-05-06 16:10 | 51.59126 | 8.55883 | 3333 ft | 185 kts | 237° |
| 2026-05-06 16:10 | 51.58374 | 8.54083 | 3898 ft | 204 kts | 236° |
| 2026-05-06 16:10 | 51.57541 | 8.52104 | 4429 ft | 223 kts | 236° |
| 2026-05-06 16:10 | 51.56627 | 8.49939 | 4936 ft | 243 kts | 234° |
| 2026-05-06 16:11 | 51.55400 | 8.48106 | 5409 ft | 249 kts | 209° |
| 2026-05-06 16:11 | 51.53740 | 8.47315 | 5214 ft | 252 kts | 181° |
| 2026-05-06 16:11 | 51.52081 | 8.47968 | 5170 ft | 249 kts | 150° |
| 2026-05-06 16:11 | 51.50738 | 8.49733 | 5163 ft | 251 kts | 132° |
| 2026-05-06 16:12 | 51.49619 | 8.51886 | 5169 ft | 251 kts | 132° |
| 2026-05-06 16:12 | 51.48372 | 8.53878 | 5372 ft | 255 kts | 138° |
| 2026-05-06 16:12 | 51.46999 | 8.55784 | 5883 ft | 270 kts | 140° |
| 2026-05-06 16:12 | 51.45524 | 8.57728 | 6773 ft | 276 kts | 141° |
| 2026-05-06 16:13 | 51.44027 | 8.59674 | 7761 ft | 279 kts | 141° |
| 2026-05-06 16:13 | 51.42503 | 8.61657 | 8713 ft | 284 kts | 141° |
| 2026-05-06 16:13 | 51.40962 | 8.63669 | 9658 ft | 288 kts | 141° |
| 2026-05-06 16:13 | 51.39395 | 8.65722 | 10479 ft | 298 kts | 141° |
| 2026-05-06 16:14 | 51.37727 | 8.67908 | 10865 ft | 321 kts | 141° |
| 2026-05-06 16:14 | 51.35939 | 8.70252 | 11255 ft | 341 kts | 141° |
| 2026-05-06 16:14 | 51.34085 | 8.72682 | 12056 ft | 346 kts | 141° |
| 2026-05-06 16:14 | 51.32210 | 8.75135 | 12883 ft | 350 kts | 141° |
| 2026-05-06 16:15 | 51.30308 | 8.77622 | 13673 ft | 355 kts | 141° |
| 2026-05-06 16:15 | 51.28415 | 8.80100 | 14683 ft | 357 kts | 143° |
| 2026-05-06 16:15 | 51.26414 | 8.82457 | 15511 ft | 357 kts | 150° |
| 2026-05-06 16:15 | 51.24293 | 8.84570 | 16202 ft | 362 kts | 151° |
| 2026-05-06 16:16 | 51.22152 | 8.86701 | 16935 ft | 365 kts | 151° |
| 2026-05-06 16:16 | 51.19994 | 8.88853 | 17688 ft | 368 kts | 151° |
| 2026-05-06 16:16 | 51.17805 | 8.91038 | 18350 ft | 372 kts | 151° |
| 2026-05-06 16:16 | 51.15603 | 8.93237 | 18962 ft | 376 kts | 151° |
| 2026-05-06 16:17 | 51.13355 | 8.95387 | 19556 ft | 377 kts | 157° |
| 2026-05-06 16:17 | 51.10878 | 8.96715 | 20160 ft | 375 kts | 172° |
| 2026-05-06 16:17 | 51.08283 | 8.96911 | 20759 ft | 374 kts | 188° |
| 2026-05-06 16:17 | 51.05713 | 8.96231 | 21352 ft | 376 kts | 193° |
| 2026-05-06 16:18 | 51.03135 | 8.95399 | 21957 ft | 379 kts | 194° |
| 2026-05-06 16:18 | 51.00546 | 8.94513 | 22521 ft | 383 kts | 194° |
| 2026-05-06 16:18 | 50.97934 | 8.93619 | 22758 ft | 385 kts | 194° |
| 2026-05-06 16:18 | 50.95308 | 8.92733 | 22797 ft | 386 kts | 194° |
| 2026-05-06 16:19 | 50.92684 | 8.91860 | 22785 ft | 385 kts | 194° |
| 2026-05-06 16:19 | 50.90056 | 8.90992 | 22789 ft | 386 kts | 193° |
| 2026-05-06 16:19 | 50.87425 | 8.90126 | 22780 ft | 386 kts | 193° |
| 2026-05-06 16:19 | 50.84793 | 8.89262 | 22784 ft | 387 kts | 193° |
| 2026-05-06 16:20 | 50.82164 | 8.88400 | 22792 ft | 387 kts | 193° |
| 2026-05-06 16:20 | 50.79562 | 8.87520 | 22783 ft | 387 kts | 194° |
| 2026-05-06 16:20 | 50.76934 | 8.86601 | 22785 ft | 387 kts | 194° |
| 2026-05-06 16:20 | 50.74300 | 8.85677 | 22788 ft | 387 kts | 194° |
| 2026-05-06 16:21 | 50.71680 | 8.84763 | 22788 ft | 388 kts | 194° |
| 2026-05-06 16:21 | 50.69042 | 8.83844 | 22784 ft | 389 kts | 194° |
| 2026-05-06 16:21 | 50.66378 | 8.82952 | 22789 ft | 390 kts | 191° |
| 2026-05-06 16:21 | 50.63679 | 8.82469 | 22793 ft | 390 kts | 184° |
| 2026-05-06 16:22 | 50.60953 | 8.82510 | 22790 ft | 392 kts | 177° |
| 2026-05-06 16:22 | 50.58236 | 8.83026 | 22786 ft | 394 kts | 173° |
| 2026-05-06 16:22 | 50.55524 | 8.83622 | 22785 ft | 394 kts | 174° |
| 2026-05-06 16:22 | 50.52802 | 8.84210 | 22789 ft | 394 kts | 174° |
| 2026-05-06 16:23 | 50.50091 | 8.84786 | 22789 ft | 394 kts | 174° |
| 2026-05-06 16:23 | 50.47365 | 8.85361 | 22789 ft | 394 kts | 173° |
| 2026-05-06 16:23 | 50.44650 | 8.85931 | 22791 ft | 394 kts | 173° |
| 2026-05-06 16:23 | 50.41934 | 8.86501 | 22792 ft | 394 kts | 173° |
| 2026-05-06 16:24 | 50.39248 | 8.87064 | 22792 ft | 394 kts | 173° |
| 2026-05-06 16:24 | 50.36530 | 8.87633 | 22788 ft | 393 kts | 173° |
| 2026-05-06 16:24 | 50.33816 | 8.88201 | 22789 ft | 393 kts | 173° |
| 2026-05-06 16:24 | 50.31101 | 8.88768 | 22789 ft | 393 kts | 173° |
| 2026-05-06 16:25 | 50.28382 | 8.89336 | 22791 ft | 393 kts | 173° |
| 2026-05-06 16:25 | 50.25668 | 8.89903 | 22792 ft | 393 kts | 173° |
| 2026-05-06 16:25 | 50.22960 | 8.90472 | 22795 ft | 393 kts | 173° |
| 2026-05-06 16:25 | 50.20250 | 8.91044 | 22794 ft | 393 kts | 173° |
| 2026-05-06 16:26 | 50.17530 | 8.91484 | 22794 ft | 392 kts | 181° |
| 2026-05-06 16:26 | 50.14835 | 8.90938 | 22793 ft | 391 kts | 196° |
| 2026-05-06 16:26 | 50.12367 | 8.89301 | 22794 ft | 392 kts | 211° |
| 2026-05-06 16:26 | 50.10227 | 8.86678 | 22804 ft | 393 kts | 222° |
| 2026-05-06 16:27 | 50.08225 | 8.83773 | 22800 ft | 393 kts | 220° |
| 2026-05-06 16:27 | 50.06021 | 8.81255 | 22794 ft | 392 kts | 210° |
| 2026-05-06 16:27 | 50.03553 | 8.79438 | 22801 ft | 391 kts | 199° |
| 2026-05-06 16:27 | 50.00931 | 8.78346 | 22803 ft | 391 kts | 192° |
| 2026-05-06 16:28 | 49.98268 | 8.77444 | 22805 ft | 391 kts | 192° |
| 2026-05-06 16:28 | 49.95614 | 8.76532 | 22800 ft | 392 kts | 192° |
| 2026-05-06 16:28 | 49.92946 | 8.75612 | 22800 ft | 392 kts | 192° |
| 2026-05-06 16:28 | 49.90285 | 8.74693 | 22799 ft | 391 kts | 192° |
| 2026-05-06 16:29 | 49.87619 | 8.73773 | 22802 ft | 392 kts | 192° |
| 2026-05-06 16:29 | 49.84956 | 8.72856 | 22803 ft | 392 kts | 192° |
| 2026-05-06 16:29 | 49.82284 | 8.71937 | 22804 ft | 393 kts | 192° |
| 2026-05-06 16:29 | 49.79643 | 8.71030 | 22798 ft | 393 kts | 192° |
| 2026-05-06 16:30 | 49.76976 | 8.70114 | 22801 ft | 393 kts | 192° |
| 2026-05-06 16:30 | 49.75166 | 8.69493 | 22804 ft | 393 kts | 192° |
| 2026-05-06 16:30 | 49.71587 | 8.68682 | 22796 ft | 394 kts | 185° |
| 2026-05-06 16:30 | 49.68853 | 8.68330 | 22792 ft | 394 kts | 185° |
| 2026-05-06 16:31 | 49.66123 | 8.67973 | 22790 ft | 393 kts | 185° |
| 2026-05-06 16:31 | 49.63387 | 8.67610 | 22782 ft | 393 kts | 185° |
| 2026-05-06 16:31 | 49.60658 | 8.67246 | 22782 ft | 393 kts | 185° |
| 2026-05-06 16:31 | 49.57929 | 8.66880 | 22777 ft | 393 kts | 185° |
| 2026-05-06 16:32 | 49.55201 | 8.66515 | 22782 ft | 393 kts | 185° |
| 2026-05-06 16:32 | 49.52474 | 8.66151 | 22779 ft | 393 kts | 185° |
| 2026-05-06 16:32 | 49.49753 | 8.65788 | 22774 ft | 393 kts | 185° |
| 2026-05-06 16:32 | 49.47025 | 8.65424 | 22775 ft | 393 kts | 185° |
| 2026-05-06 16:33 | 49.44343 | 8.65067 | 22771 ft | 392 kts | 185° |
| 2026-05-06 16:33 | 49.41619 | 8.64705 | 22778 ft | 392 kts | 185° |
| 2026-05-06 16:33 | 49.38897 | 8.64344 | 22779 ft | 392 kts | 185° |
| 2026-05-06 16:34 | 49.33466 | 8.63624 | 22782 ft | 392 kts | 185° |
| 2026-05-06 16:34 | 49.30749 | 8.63247 | 22789 ft | 391 kts | 186° |
| 2026-05-06 16:34 | 49.28045 | 8.62828 | 22784 ft | 391 kts | 186° |
| 2026-05-06 16:34 | 49.25337 | 8.62396 | 22787 ft | 391 kts | 186° |
| 2026-05-06 16:35 | 49.22635 | 8.61967 | 22798 ft | 391 kts | 186° |
| 2026-05-06 16:35 | 49.19931 | 8.61542 | 22802 ft | 391 kts | 186° |
| 2026-05-06 16:35 | 49.17230 | 8.61122 | 22773 ft | 389 kts | 186° |
| 2026-05-06 16:35 | 49.14495 | 8.60699 | 22634 ft | 401 kts | 186° |
| 2026-05-06 16:36 | 49.11710 | 8.60276 | 22601 ft | 402 kts | 186° |
| 2026-05-06 16:36 | 49.08952 | 8.59864 | 22525 ft | 394 kts | 186° |
| 2026-05-06 16:36 | 49.06265 | 8.59464 | 22256 ft | 386 kts | 186° |
| 2026-05-06 16:36 | 49.03596 | 8.59066 | 21722 ft | 383 kts | 186° |
| 2026-05-06 16:37 | 49.00956 | 8.58673 | 21149 ft | 380 kts | 185° |
| 2026-05-06 16:37 | 48.98320 | 8.58539 | 20562 ft | 377 kts | 178° |
| 2026-05-06 16:37 | 48.95711 | 8.58827 | 20010 ft | 375 kts | 176° |
| 2026-05-06 16:37 | 48.93121 | 8.59150 | 19461 ft | 372 kts | 176° |
| 2026-05-06 16:38 | 48.90553 | 8.59469 | 18924 ft | 369 kts | 174° |
| 2026-05-06 16:38 | 48.88084 | 8.60443 | 18377 ft | 368 kts | 157° |
| 2026-05-06 16:38 | 48.85940 | 8.62578 | 17573 ft | 370 kts | 138° |
| 2026-05-06 16:38 | 48.84385 | 8.65610 | 17188 ft | 371 kts | 120° |
| 2026-05-06 16:39 | 48.83540 | 8.69314 | 16556 ft | 374 kts | 101° |
| 2026-05-06 16:39 | 48.83540 | 8.73250 | 15970 ft | 376 kts | 82° |
| 2026-05-06 16:39 | 48.84048 | 8.77141 | 15401 ft | 375 kts | 79° |
| 2026-05-06 16:39 | 48.84604 | 8.80990 | 14874 ft | 372 kts | 79° |
| 2026-05-06 16:40 | 48.85147 | 8.84839 | 14172 ft | 375 kts | 79° |
| 2026-05-06 16:40 | 48.85676 | 8.88773 | 13164 ft | 386 kts | 80° |
| 2026-05-06 16:40 | 48.86198 | 8.92810 | 12129 ft | 393 kts | 80° |
| 2026-05-06 16:40 | 48.86720 | 8.96934 | 11072 ft | 401 kts | 80° |
| 2026-05-06 16:41 | 48.87241 | 9.01100 | 10368 ft | 399 kts | 80° |
| 2026-05-06 16:41 | 48.87751 | 9.05187 | 10036 ft | 387 kts | 80° |
| 2026-05-06 16:41 | 48.88241 | 9.09126 | 9886 ft | 370 kts | 80° |
| 2026-05-06 16:41 | 48.88708 | 9.12886 | 9822 ft | 353 kts | 80° |
| 2026-05-06 16:42 | 48.89155 | 9.16504 | 9347 ft | 348 kts | 80° |
| 2026-05-06 16:42 | 48.89605 | 9.20160 | 8514 ft | 356 kts | 80° |
| 2026-05-06 16:42 | 48.90063 | 9.23887 | 7639 ft | 363 kts | 80° |
| 2026-05-06 16:42 | 48.90372 | 9.26407 | 7020 ft | 369 kts | 80° |
| 2026-05-06 16:43 | 48.90782 | 9.30289 | 6052 ft | 376 kts | 88° |
| 2026-05-06 16:43 | 48.90205 | 9.35446 | 4995 ft | 373 kts | 115° |
| 2026-05-06 16:43 | 48.88847 | 9.38610 | 4645 ft | 342 kts | 136° |
| 2026-05-06 16:43 | 48.87102 | 9.40790 | 4327 ft | 312 kts | 147° |
| 2026-05-06 16:44 | 48.85903 | 9.42036 | 3773 ft | 308 kts | 148° |
| 2026-05-06 16:44 | 48.84179 | 9.43837 | 3383 ft | 291 kts | 147° |
| 2026-05-06 16:44 | 48.82607 | 9.45610 | 3139 ft | 271 kts | 144° |
| 2026-05-06 16:44 | 48.81185 | 9.47332 | 3019 ft | 254 kts | 143° |
| 2026-05-06 16:45 | 48.79676 | 9.49250 | 2995 ft | 222 kts | 142° |
| 2026-05-06 16:45 | 48.79528 | 9.49441 | 2986 ft | 218 kts | 142° |
| 2026-05-06 16:45 | 48.78452 | 9.50845 | 3005 ft | 189 kts | 143° |
| 2026-05-06 16:45 | 48.77474 | 9.52020 | 3005 ft | 176 kts | 154° |
| 2026-05-06 16:46 | 48.76422 | 9.52494 | 2979 ft | 140 kts | 182° |
| 2026-05-06 16:46 | 48.75509 | 9.52274 | 3022 ft | 139 kts | 207° |
| 2026-05-06 16:46 | 48.74776 | 9.51361 | 3001 ft | 135 kts | 236° |
| 2026-05-06 16:46 | 48.74335 | 9.50118 | 3005 ft | 133 kts | 249° |
| 2026-05-06 16:47 | 48.74033 | 9.48794 | 3001 ft | 134 kts | 253° |
| 2026-05-06 16:47 | 48.73862 | 9.47927 | 3008 ft | 140 kts | 254° |
| 2026-05-06 16:47 | 48.73579 | 9.46395 | 3191 ft | 163 kts | 254° |
| 2026-05-06 16:47 | 48.73271 | 9.44659 | 3184 ft | 165 kts | 254° |
| 2026-05-06 16:48 | 48.72990 | 9.43116 | 2932 ft | 148 kts | 254° |
| 2026-05-06 16:48 | 48.72728 | 9.41667 | 2709 ft | 137 kts | 254° |
| 2026-05-06 16:48 | 48.72450 | 9.40326 | 2496 ft | 134 kts | 251° |
| 2026-05-06 16:48 | 48.72143 | 9.38918 | 2340 ft | 146 kts | 252° |
| 2026-05-06 16:49 | 48.71828 | 9.37342 | 2192 ft | 168 kts | 254° |
| 2026-05-06 16:49 | 48.71504 | 9.35521 | 2139 ft | 179 kts | 255° |
| 2026-05-06 16:49 | 48.71212 | 9.33839 | 1869 ft | 156 kts | 254° |
| 2026-05-06 16:49 | 48.70936 | 9.32384 | 1749 ft | 135 kts | 253° |
| 2026-05-06 16:50 | 48.70674 | 9.31025 | 1666 ft | 146 kts | 252° |
| 2026-05-06 16:50 | 48.70363 | 9.29455 | 1645 ft | 154 kts | 253° |
| 2026-05-06 16:50 | 48.70075 | 9.27969 | 1459 ft | 141 kts | 254° |
| 2026-05-06 16:50 | 48.69827 | 9.26600 | 1344 ft | 130 kts | 253° |
| 2026-05-06 16:51 | 48.69591 | 9.25355 | 1287 ft | 119 kts | 252° |
| 2026-05-06 16:51 | 48.69370 | 9.24181 | 1203 ft | 112 kts | 252° |
| 2026-05-06 16:51 | 48.69169 | 9.23177 | 1221 ft | 58 kts | 255° |
| 2026-05-06 16:51 | 48.69153 | 9.23076 | 1223 ft | 4 kts | 257° |
| 2026-05-06 16:52 | 48.69109 | 9.22834 | 1224 ft | 38 kts | 254° |
| 2026-05-06 16:52 | 48.69028 | 9.22413 | 1232 ft | 45 kts | 253° |
| 2026-05-06 16:52 | 48.68961 | 9.22063 | 1253 ft | 22 kts | 253° |
| 2026-05-06 16:52 | 48.68940 | 9.21787 | 1246 ft | 32 kts | 271° |
| 2026-05-06 16:53 | 48.68972 | 9.21553 | 1256 ft | 0 kts | 285° |
| 2026-05-06 16:53 | 48.68976 | 9.21528 | 1261 ft | 3 kts | 285° |
| 2026-05-06 16:53 | 48.68981 | 9.21498 | 1256 ft | 0 kts | 285° |
| 2026-05-06 16:53 | 48.68987 | 9.21467 | 1253 ft | 9 kts | 284° |
| 2026-05-06 16:54 | 48.68992 | 9.21292 | 1262 ft | 24 kts | 255° |
| 2026-05-06 16:54 | 48.68944 | 9.21034 | 1265 ft | 21 kts | 255° |
| 2026-05-06 16:54 | 48.68891 | 9.20767 | 1267 ft | 32 kts | 252° |
| 2026-05-06 16:54 | 48.68835 | 9.20468 | 1276 ft | 18 kts | 253° |
| 2026-05-06 16:55 | 48.68787 | 9.20218 | 1287 ft | 30 kts | 253° |
| 2026-05-06 16:55 | 48.68772 | 9.19939 | 1286 ft | 25 kts | 275° |
| 2026-05-06 16:55 | 48.68718 | 9.19642 | 1291 ft | 34 kts | 253° |
| 2026-05-06 16:55 | 48.68663 | 9.19357 | 1304 ft | 25 kts | 254° |
| 2026-05-06 16:56 | 48.68722 | 9.19219 | 1312 ft | 21 kts | 8° |
| 2026-05-06 16:56 | 48.68823 | 9.19310 | 1312 ft | 22 kts | 59° |